Time;durP1;ratioP1;P1;durP2;ratioP2;P2;SDS_P1;SDS_P2;PMS_P1;PMS_P2;Temp;Humidity;BMP_temperature;BMP_pressure;BME280_temperature;BME280_humidity;BME280_pressure;Samples;Min_cycle;Max_cycle;Signal;HPM_P1;HPM_P2
2023/09/07 00:02:18;;;;;;;1.83;1.27;;;18.10;99.90;;;;;;4990085;28;20042;-65
2023/09/07 00:04:44;;;;;;;1.70;1.13;;;18.10;99.90;;;;;;5040565;28;20042;-65
2023/09/07 00:07:09;;;;;;;2.00;1.00;;;18.10;99.90;;;;;;4990234;28;20042;-65
2023/09/07 00:09:35;;;;;;;2.92;1.45;;;18.10;99.90;;;;;;4989234;28;20046;-65
2023/09/07 00:12:01;;;;;;;3.22;1.17;;;18.10;99.90;;;;;;5042605;28;20046;-65
2023/09/07 00:14:27;;;;;;;2.55;1.30;;;18.10;99.90;;;;;;5037358;28;20161;-65
2023/09/07 00:16:52;;;;;;;1.75;1.15;;;18.10;99.90;;;;;;4969719;28;20042;-65
2023/09/07 00:19:18;;;;;;;5.20;1.20;;;18.10;99.90;;;;;;4973473;28;20034;-65
2023/09/07 00:21:44;;;;;;;1.73;1.10;;;18.10;99.90;;;;;;4988331;28;20529;-65
2023/09/07 00:24:10;;;;;;;1.85;1.10;;;18.20;99.90;;;;;;5029021;28;20085;-65
2023/09/07 00:26:36;;;;;;;1.98;0.90;;;18.20;99.90;;;;;;4989548;28;20108;-65
2023/09/07 00:29:02;;;;;;;3.40;1.50;;;18.20;99.90;;;;;;4989673;28;20042;-65
2023/09/07 00:31:28;;;;;;;1.90;1.13;;;18.20;99.90;;;;;;5056386;28;20051;-66
2023/09/07 00:33:53;;;;;;;2.83;1.10;;;18.20;99.90;;;;;;5057213;28;20047;-66
2023/09/07 00:36:19;;;;;;;2.33;1.40;;;18.20;99.90;;;;;;5040298;28;20039;-66
2023/09/07 00:38:45;;;;;;;3.38;1.50;;;18.20;99.90;;;;;;5056435;28;20376;-66
2023/09/07 00:41:12;;;;;;;3.45;1.42;;;18.20;99.90;;;;;;5073488;28;20620;-66
2023/09/07 00:43:40;;;;;;;1.83;1.15;;;18.10;99.90;;;;;;5073631;28;20072;-66
2023/09/07 00:46:07;;;;;;;1.33;0.80;;;18.10;99.90;;;;;;5073199;28;20052;-66
2023/09/07 00:48:33;;;;;;;1.40;0.73;;;18.10;99.90;;;;;;5073503;28;20538;-66
2023/09/07 00:50:59;;;;;;;2.10;1.35;;;18.10;99.90;;;;;;5073408;28;20526;-66
2023/09/07 00:53:27;;;;;;;2.28;1.30;;;18.00;99.90;;;;;;5011385;28;20038;-66
2023/09/07 00:55:55;;;;;;;1.95;1.17;;;18.00;99.90;;;;;;4989255;28;20569;-65
2023/09/07 00:58:21;;;;;;;3.03;1.55;;;18.00;99.90;;;;;;4989169;28;20046;-65
2023/09/07 01:00:48;;;;;;;3.30;1.67;;;18.00;99.90;;;;;;5039034;28;20039;-65
2023/09/07 01:03:14;;;;;;;2.28;1.08;;;17.90;99.90;;;;;;5056139;28;20038;-65
2023/09/07 01:05:52;;;;;;;2.67;1.30;;;17.90;99.90;;;;;;4988478;28;20049;-65
2023/09/07 01:08:45;;;;;;;1.50;1.02;;;17.90;99.90;;;;;;4974462;28;20054;-65
2023/09/07 01:11:16;;;;;;;2.35;1.20;;;17.90;99.90;;;;;;5019487;28;20055;-65
2023/09/07 01:13:42;;;;;;;4.10;1.35;;;17.80;99.90;;;;;;5035530;28;20050;-65
2023/09/07 01:16:10;;;;;;;5.88;1.02;;;17.80;99.90;;;;;;5036235;28;20545;-65
2023/09/07 01:18:37;;;;;;;1.95;1.27;;;17.70;99.90;;;;;;5035962;28;20058;-65
2023/09/07 01:21:07;;;;;;;3.13;1.60;;;17.70;99.90;;;;;;5069395;28;20088;-65
2023/09/07 01:23:36;;;;;;;1.63;1.23;;;17.60;99.90;;;;;;5063943;28;20485;-65
2023/09/07 01:26:03;;;;;;;2.57;1.30;;;17.60;99.90;;;;;;5076293;28;20103;-65
2023/09/07 01:28:29;;;;;;;2.20;1.05;;;17.60;99.90;;;;;;5007802;28;20593;-65
2023/09/07 01:30:55;;;;;;;6.07;1.10;;;17.50;99.90;;;;;;5076379;28;20046;-65
2023/09/07 01:33:21;;;;;;;2.75;1.45;;;17.50;99.90;;;;;;5075292;28;20912;-65
2023/09/07 01:35:46;;;;;;;2.15;0.90;;;17.50;99.90;;;;;;5075857;28;20412;-65
2023/09/07 01:38:12;;;;;;;3.15;1.55;;;17.40;99.90;;;;;;5008305;28;20113;-65
2023/09/07 01:40:38;;;;;;;2.78;1.40;;;17.40;99.90;;;;;;5005898;28;20482;-65
2023/09/07 01:43:04;;;;;;;3.03;1.40;;;17.40;99.90;;;;;;4988734;28;20402;-65
2023/09/07 01:45:29;;;;;;;2.80;1.42;;;17.40;99.90;;;;;;5055507;28;20130;-65
2023/09/07 01:47:55;;;;;;;2.28;1.30;;;17.40;99.90;;;;;;5054733;28;20046;-65
2023/09/07 01:50:21;;;;;;;3.38;1.88;;;17.30;99.90;;;;;;5055725;28;20103;-65
2023/09/07 01:52:48;;;;;;;2.97;1.20;;;17.30;99.90;;;;;;5027312;28;20050;-65
2023/09/07 01:55:14;;;;;;;1.35;0.80;;;17.30;99.90;;;;;;4986531;28;20498;-65
2023/09/07 01:57:40;;;;;;;2.03;1.23;;;17.30;99.90;;;;;;4988364;28;20089;-65
2023/09/07 02:00:06;;;;;;;2.30;1.08;;;17.30;99.90;;;;;;4987874;28;20045;-65
2023/09/07 02:02:32;;;;;;;4.65;0.80;;;17.20;99.90;;;;;;5054618;28;20046;-65
2023/09/07 02:04:58;;;;;;;2.50;1.17;;;17.20;99.90;;;;;;4973392;28;20092;-65
2023/09/07 02:07:24;;;;;;;2.05;1.17;;;17.10;99.90;;;;;;5051916;28;20137;-65
2023/09/07 02:09:50;;;;;;;2.22;1.13;;;17.00;99.90;;;;;;4968036;28;20122;-65
2023/09/07 02:12:15;;;;;;;3.88;1.42;;;16.80;99.90;;;;;;5035265;28;20047;-65
2023/09/07 02:14:41;;;;;;;2.35;1.17;;;16.70;99.90;;;;;;4968731;28;20042;-65
2023/09/07 02:17:07;;;;;;;6.15;1.50;;;16.60;99.90;;;;;;4983087;28;20453;-65
2023/09/07 02:19:33;;;;;;;2.95;1.48;;;16.50;99.90;;;;;;4986533;28;20054;-65
2023/09/07 02:21:58;;;;;;;3.53;1.42;;;16.40;99.90;;;;;;4988223;28;20042;-65
2023/09/07 02:24:24;;;;;;;2.70;1.67;;;16.40;99.90;;;;;;5035714;28;20135;-65
2023/09/07 02:26:50;;;;;;;3.30;1.75;;;16.30;99.90;;;;;;5055052;28;20051;-65
2023/09/07 02:29:16;;;;;;;3.05;1.50;;;16.30;99.90;;;;;;4987658;28;20034;-65
2023/09/07 02:31:42;;;;;;;3.05;1.77;;;16.30;99.90;;;;;;5054751;28;20057;-65
2023/09/07 02:34:07;;;;;;;4.18;1.63;;;16.30;99.90;;;;;;5055032;28;20050;-65
2023/09/07 02:36:35;;;;;;;2.88;1.48;;;16.30;99.90;;;;;;4987261;28;20113;-65
2023/09/07 02:39:01;;;;;;;3.65;1.48;;;16.30;99.90;;;;;;5038168;28;20042;-65
2023/09/07 02:41:27;;;;;;;4.50;1.58;;;16.30;99.90;;;;;;4979192;28;20039;-65
2023/09/07 02:43:53;;;;;;;3.10;1.65;;;16.30;99.90;;;;;;5035180;28;20042;-65
2023/09/07 02:46:18;;;;;;;3.08;1.45;;;16.30;99.90;;;;;;5039021;28;20483;-65
2023/09/07 02:48:44;;;;;;;2.30;1.27;;;16.30;99.90;;;;;;4971465;28;20384;-65
2023/09/07 02:51:10;;;;;;;4.90;1.73;;;16.30;99.90;;;;;;5038435;28;20440;-65
2023/09/07 02:53:36;;;;;;;2.65;1.50;;;16.30;99.90;;;;;;4987908;28;20490;-65
2023/09/07 02:56:04;;;;;;;2.47;1.48;;;16.30;99.90;;;;;;5058436;28;20473;-65
2023/09/07 02:58:31;;;;;;;3.20;1.83;;;16.30;99.90;;;;;;5057909;28;20107;-66
2023/09/07 03:00:56;;;;;;;2.78;1.65;;;16.30;99.90;;;;;;5041317;28;20714;-65
2023/09/07 03:03:23;;;;;;;3.75;1.73;;;16.30;99.90;;;;;;4991117;28;20083;-65
2023/09/07 03:05:49;;;;;;;2.58;1.30;;;16.30;99.90;;;;;;5057681;28;20084;-65
2023/09/07 03:08:15;;;;;;;2.90;1.60;;;16.30;99.90;;;;;;4990994;28;20042;-65
2023/09/07 03:10:41;;;;;;;2.40;1.10;;;16.30;99.90;;;;;;4990980;28;20054;-65
2023/09/07 03:13:08;;;;;;;3.03;1.50;;;16.30;99.90;;;;;;4989980;28;20406;-65
2023/09/07 03:15:34;;;;;;;4.05;1.55;;;16.30;99.90;;;;;;4990286;28;20042;-65
2023/09/07 03:18:00;;;;;;;4.10;1.70;;;16.30;99.90;;;;;;4990693;28;20095;-65
2023/09/07 03:20:26;;;;;;;2.22;1.40;;;16.30;99.90;;;;;;4989346;28;20042;-65
2023/09/07 03:22:52;;;;;;;4.65;1.80;;;16.30;99.90;;;;;;4990893;28;20057;-65
2023/09/07 03:25:18;;;;;;;3.80;1.85;;;16.30;99.90;;;;;;4989084;28;20103;-65
2023/09/07 03:27:44;;;;;;;2.40;1.40;;;16.30;99.90;;;;;;4989218;28;20047;-65
2023/09/07 03:30:10;;;;;;;2.75;1.63;;;16.20;99.90;;;;;;4989304;28;20121;-65
2023/09/07 03:32:36;;;;;;;2.60;1.33;;;16.20;99.90;;;;;;5056359;28;20382;-65
2023/09/07 03:35:06;;;;;;;3.08;1.58;;;16.20;99.90;;;;;;4989266;28;20046;-65
2023/09/07 03:37:32;;;;;;;2.97;1.70;;;16.10;99.90;;;;;;5049097;28;20126;-65
2023/09/07 03:39:58;;;;;;;2.67;1.52;;;16.10;99.90;;;;;;4969376;28;20121;-66
2023/09/07 03:42:24;;;;;;;3.03;1.20;;;16.10;99.90;;;;;;5036590;28;20046;-65
2023/09/07 03:44:50;;;;;;;2.92;1.40;;;16.10;99.90;;;;;;5036879;28;20502;-66
2023/09/07 03:47:15;;;;;;;3.65;1.40;;;16.00;99.90;;;;;;5036312;28;20043;-66
2023/09/07 03:49:41;;;;;;;2.88;1.58;;;16.00;99.90;;;;;;4984839;28;20050;-66
2023/09/07 03:52:07;;;;;;;5.35;1.60;;;16.00;99.90;;;;;;4989248;28;20047;-66
2023/09/07 03:54:33;;;;;;;4.97;2.15;;;16.00;99.90;;;;;;5055754;28;20046;-66
2023/09/07 03:56:59;;;;;;;2.72;1.83;;;15.90;99.90;;;;;;4989125;28;20402;-65
2023/09/07 03:59:27;;;;;;;2.85;1.67;;;15.90;99.90;;;;;;5055776;28;20557;-66
2023/09/07 04:01:53;;;;;;;2.92;1.67;;;15.90;99.90;;;;;;5055600;28;20087;-65
2023/09/07 04:04:19;;;;;;;3.03;1.65;;;15.90;99.90;;;;;;5056530;28;20054;-66
2023/09/07 04:06:47;;;;;;;2.53;1.60;;;15.90;99.90;;;;;;5056315;28;20049;-65
2023/09/07 04:09:14;;;;;;;4.00;1.92;;;15.80;99.90;;;;;;4988184;28;20517;-66
2023/09/07 04:11:40;;;;;;;2.33;1.50;;;15.80;99.90;;;;;;5055964;28;20046;-65
2023/09/07 04:14:05;;;;;;;3.45;1.67;;;15.80;99.90;;;;;;4988638;28;20125;-65
2023/09/07 04:16:31;;;;;;;4.45;1.83;;;15.80;99.90;;;;;;4988077;28;20073;-65
2023/09/07 04:18:57;;;;;;;2.97;1.70;;;15.70;99.90;;;;;;4988979;28;20042;-65
2023/09/07 04:21:23;;;;;;;4.28;2.05;;;15.70;99.90;;;;;;4988594;28;20482;-65
2023/09/07 04:23:48;;;;;;;3.08;1.42;;;15.60;99.90;;;;;;4957246;28;1206536;-65
2023/09/07 04:26:15;;;;;;;2.78;1.77;;;15.60;99.90;;;;;;5077016;28;20061;-65
2023/09/07 04:28:40;;;;;;;2.97;1.55;;;15.50;99.90;;;;;;5076575;28;20049;-65
2023/09/07 04:31:06;;;;;;;4.82;1.80;;;15.40;99.90;;;;;;5009354;28;20041;-65
2023/09/07 04:33:33;;;;;;;4.18;1.98;;;15.40;99.90;;;;;;4999006;28;20047;-65
2023/09/07 04:36:15;;;;;;;4.65;1.85;;;15.40;99.90;;;;;;4969542;28;20108;-65
2023/09/07 04:38:41;;;;;;;4.20;1.75;;;15.30;99.90;;;;;;4970080;28;20050;-65
2023/09/07 04:41:07;;;;;;;3.28;1.83;;;15.30;99.90;;;;;;5053685;28;20074;-65
2023/09/07 04:43:33;;;;;;;3.92;1.80;;;15.40;99.90;;;;;;5035708;28;20034;-65
2023/09/07 04:45:59;;;;;;;3.78;2.00;;;15.30;99.90;;;;;;5050977;28;20046;-66
2023/09/07 04:48:25;;;;;;;4.53;2.08;;;15.30;99.90;;;;;;5049508;28;20038;-66
2023/09/07 04:51:03;;;;;;;3.83;1.80;;;15.30;99.90;;;;;;5050239;28;20446;-66
2023/09/07 04:53:31;;;;;;;2.05;1.40;;;15.30;99.90;;;;;;4989237;28;20042;-66
2023/09/07 04:55:58;;;;;;;4.35;2.25;;;15.30;99.90;;;;;;5056423;28;20046;-65
2023/09/07 04:58:24;;;;;;;3.63;1.83;;;15.30;99.90;;;;;;4988565;28;20053;-65
2023/09/07 05:00:50;;;;;;;4.88;2.22;;;15.30;99.90;;;;;;5055800;28;20548;-65
2023/09/07 05:03:16;;;;;;;4.28;1.70;;;15.30;99.90;;;;;;4988624;28;20384;-65
2023/09/07 05:05:43;;;;;;;3.15;1.80;;;15.30;99.90;;;;;;4988757;28;20048;-65
2023/09/07 05:08:09;;;;;;;3.13;1.73;;;15.30;99.90;;;;;;5055605;28;20082;-65
2023/09/07 05:10:36;;;;;;;3.13;1.73;;;15.30;99.90;;;;;;5055680;28;20043;-65
2023/09/07 05:13:02;;;;;;;3.97;2.15;;;15.30;99.90;;;;;;4988618;28;20096;-65
2023/09/07 05:15:28;;;;;;;3.25;1.98;;;15.30;99.90;;;;;;4987818;28;20053;-65
2023/09/07 05:17:54;;;;;;;4.43;2.22;;;15.30;99.90;;;;;;4988210;28;20390;-66
2023/09/07 05:20:21;;;;;;;4.28;2.20;;;15.30;99.90;;;;;;4987941;28;20386;-65
2023/09/07 05:22:47;;;;;;;3.40;1.77;;;15.40;99.90;;;;;;4987550;28;20121;-65
2023/09/07 05:25:13;;;;;;;4.53;2.13;;;15.40;99.90;;;;;;4988087;28;20112;-65
2023/09/07 05:27:39;;;;;;;11.38;2.55;;;15.40;99.90;;;;;;5055784;28;20068;-65
2023/09/07 05:30:14;;;;;;;3.22;1.70;;;15.50;99.90;;;;;;5052451;28;20102;-65
2023/09/07 05:32:41;;;;;;;4.72;2.50;;;15.50;99.90;;;;;;5055198;28;20104;-66
2023/09/07 05:35:07;;;;;;;5.15;2.45;;;15.50;99.90;;;;;;4988691;28;20053;-66
2023/09/07 05:37:33;;;;;;;2.97;1.85;;;15.50;99.90;;;;;;4988691;28;20114;-66
2023/09/07 05:39:59;;;;;;;4.38;2.63;;;15.50;99.90;;;;;;4988443;28;20510;-66
2023/09/07 05:42:25;;;;;;;4.60;2.25;;;15.60;99.90;;;;;;5055968;28;20057;-66
2023/09/07 05:44:51;;;;;;;3.58;1.90;;;15.60;99.90;;;;;;5055441;28;20168;-66
2023/09/07 05:47:17;;;;;;;2.75;2.15;;;15.70;99.90;;;;;;5055018;28;20129;-66
2023/09/07 05:49:43;;;;;;;4.65;2.28;;;15.70;99.90;;;;;;4988182;28;20049;-66
2023/09/07 05:52:09;;;;;;;5.03;2.70;;;15.80;99.90;;;;;;5038772;28;20187;-66
2023/09/07 05:54:34;;;;;;;3.30;1.67;;;15.80;99.90;;;;;;5055104;28;20081;-65
2023/09/07 05:57:00;;;;;;;3.72;2.28;;;15.90;99.90;;;;;;4988671;28;20038;-65
2023/09/07 05:59:26;;;;;;;2.83;1.80;;;15.90;99.90;;;;;;4987689;28;20042;-65
2023/09/07 06:01:52;;;;;;;4.38;1.98;;;16.00;99.90;;;;;;5055673;28;20050;-65
2023/09/07 06:04:17;;;;;;;4.80;2.55;;;16.10;99.90;;;;;;5055612;28;20662;-65
2023/09/07 06:06:43;;;;;;;4.50;2.22;;;16.20;99.90;;;;;;4987704;28;20048;-65
2023/09/07 06:09:09;;;;;;;4.15;2.30;;;16.30;99.90;;;;;;5055686;28;20100;-65
2023/09/07 06:11:35;;;;;;;3.97;2.55;;;16.40;99.90;;;;;;4988070;28;20042;-65
2023/09/07 06:14:01;;;;;;;4.82;2.05;;;16.60;99.90;;;;;;4987777;28;20046;-66
2023/09/07 06:16:26;;;;;;;5.07;2.13;;;16.70;99.90;;;;;;4987065;28;20046;-66
2023/09/07 06:18:52;;;;;;;3.70;2.03;;;17.00;99.90;;;;;;4986707;28;20415;-66
2023/09/07 06:21:18;;;;;;;5.18;2.17;;;17.30;99.90;;;;;;4987501;28;20169;-66
2023/09/07 06:23:43;;;;;;;4.18;2.45;;;17.60;99.90;;;;;;5054869;28;20116;-66
2023/09/07 06:26:09;;;;;;;4.72;2.45;;;18.00;99.90;;;;;;5051811;28;20050;-66
2023/09/07 06:28:35;;;;;;;2.97;1.90;;;18.30;99.90;;;;;;4987601;28;20034;-66
2023/09/07 06:31:01;;;;;;;3.83;1.73;;;18.60;99.90;;;;;;5054997;28;20081;-66
2023/09/07 06:33:26;;;;;;;2.97;1.65;;;19.00;99.90;;;;;;5055145;28;20081;-66
2023/09/07 06:35:52;;;;;;;3.05;1.92;;;19.40;99.90;;;;;;4987466;28;20100;-66
2023/09/07 06:38:18;;;;;;;3.78;1.70;;;19.80;99.90;;;;;;4987919;28;20046;-66
2023/09/07 06:40:50;;;;;;;4.10;1.60;;;20.00;99.90;;;;;;5056901;28;20038;-66
2023/09/07 06:43:15;;;;;;;2.72;1.88;;;20.00;99.90;;;;;;5074498;28;20042;-66
2023/09/07 06:45:41;;;;;;;2.95;1.67;;;20.00;99.90;;;;;;5044795;28;20099;-66
2023/09/07 06:48:07;;;;;;;2.97;1.83;;;19.90;99.90;;;;;;5054975;28;20046;-66
2023/09/07 06:50:33;;;;;;;3.05;1.48;;;19.90;99.90;;;;;;5054365;28;20038;-66
2023/09/07 06:52:59;;;;;;;3.40;1.58;;;19.90;99.90;;;;;;5054589;28;20103;-66
2023/09/07 06:55:24;;;;;;;2.92;1.52;;;19.80;99.90;;;;;;4987041;28;20043;-66
2023/09/07 06:57:50;;;;;;;3.35;1.95;;;19.80;99.90;;;;;;4987439;28;20038;-66
2023/09/07 07:00:16;;;;;;;2.85;1.77;;;19.80;99.90;;;;;;5054539;28;20042;-67
2023/09/07 07:02:42;;;;;;;3.72;1.73;;;19.80;99.90;;;;;;4987339;28;20219;-66
2023/09/07 07:05:08;;;;;;;3.38;1.70;;;19.80;99.90;;;;;;5054632;28;20043;-66
2023/09/07 07:07:34;;;;;;;3.08;1.90;;;19.80;99.90;;;;;;5054547;28;20047;-66
2023/09/07 07:10:00;;;;;;;3.53;1.70;;;19.80;99.90;;;;;;5054143;28;20129;-66
2023/09/07 07:12:26;;;;;;;4.45;1.92;;;19.80;99.90;;;;;;4987592;28;20109;-66
2023/09/07 07:14:52;;;;;;;3.25;1.88;;;19.80;99.90;;;;;;5002625;28;20050;-66
2023/09/07 07:17:18;;;;;;;3.08;1.50;;;19.90;99.90;;;;;;5047258;28;20418;-67
2023/09/07 07:19:43;;;;;;;5.68;1.45;;;19.90;99.90;;;;;;4987594;28;20034;-67
2023/09/07 07:22:09;;;;;;;3.10;1.83;;;20.00;99.90;;;;;;5051272;28;20038;-66
2023/09/07 07:24:35;;;;;;;3.20;2.03;;;20.10;99.90;;;;;;5067210;28;20056;-67
2023/09/07 07:27:01;;;;;;;5.00;2.20;;;20.10;99.90;;;;;;5069321;28;20045;-66
2023/09/07 07:29:26;;;;;;;3.05;1.67;;;20.20;99.90;;;;;;5069128;28;20396;-67
2023/09/07 07:31:52;;;;;;;3.20;1.92;;;20.30;99.90;;;;;;5072385;28;20127;-67
2023/09/07 07:34:18;;;;;;;2.63;1.42;;;20.40;99.90;;;;;;5073468;28;20036;-66
2023/09/07 07:36:44;;;;;;;3.97;1.50;;;20.50;99.90;;;;;;5073148;28;20504;-67
2023/09/07 07:39:09;;;;;;;4.93;2.05;;;20.60;99.90;;;;;;5071388;28;20377;-66
2023/09/07 07:41:35;;;;;;;2.90;1.67;;;20.70;99.90;;;;;;5082048;28;20442;-66
2023/09/07 07:44:01;;;;;;;2.63;1.60;;;20.80;99.90;;;;;;5093407;28;20177;-66
2023/09/07 07:46:27;;;;;;;2.55;1.65;;;20.90;99.90;;;;;;5072232;28;20079;-68
2023/09/07 07:48:53;;;;;;;5.68;2.17;;;21.10;99.90;;;;;;5071887;28;20119;-67
2023/09/07 07:51:19;;;;;;;2.63;1.70;;;21.20;99.90;;;;;;5071537;28;20851;-67
2023/09/07 07:53:44;;;;;;;3.83;1.65;;;21.30;99.90;;;;;;5071242;28;20389;-66
2023/09/07 07:56:19;;;;;;;2.25;1.45;;;21.40;99.90;;;;;;5071011;28;20102;-66
2023/09/07 07:58:45;;;;;;;1.88;1.23;;;21.60;99.90;;;;;;5071306;28;20036;-66
2023/09/07 08:01:20;;;;;;;3.03;1.75;;;21.70;99.90;;;;;;5070918;28;20051;-67
2023/09/07 08:03:46;;;;;;;7.90;2.13;;;21.90;99.90;;;;;;5071448;28;20053;-67
2023/09/07 08:06:11;;;;;;;3.15;1.95;;;22.10;99.90;;;;;;5069668;28;20567;-66
2023/09/07 08:08:39;;;;;;;3.58;1.77;;;22.40;99.90;;;;;;5070580;28;20040;-67
2023/09/07 08:11:05;;;;;;;3.22;1.73;;;23.00;99.90;;;;;;5071107;28;20044;-67
2023/09/07 08:13:33;;;;;;;2.88;1.40;;;23.50;99.90;;;;;;5070156;28;20045;-67
2023/09/07 08:16:03;;;;;;;4.07;1.83;;;24.20;99.90;;;;;;5070417;28;20489;-67
2023/09/07 08:18:31;;;;;;;2.97;1.33;;;24.90;99.90;;;;;;5068824;28;20044;-67
2023/09/07 08:20:58;;;;;;;2.40;1.48;;;25.60;99.90;;;;;;5070553;28;20199;-68
2023/09/07 08:23:23;;;;;;;3.42;1.70;;;26.20;99.90;;;;;;5067229;28;20036;-67
2023/09/07 08:25:51;;;;;;;2.47;1.58;;;26.60;99.90;;;;;;4989276;28;20117;-66
2023/09/07 08:28:18;;;;;;;2.88;1.30;;;27.00;99.90;;;;;;5056311;28;20046;-67
2023/09/07 08:30:45;;;;;;;3.13;1.50;;;27.40;99.90;;;;;;5056797;28;20644;-67
2023/09/07 08:33:11;;;;;;;4.07;1.90;;;27.80;99.90;;;;;;4989415;28;20043;-68
2023/09/07 08:35:43;;;;;;;3.70;1.63;;;28.10;99.90;;;;;;5056419;28;20103;-67
2023/09/07 08:38:10;;;;;;;2.58;1.30;;;28.20;99.90;;;;;;5056837;28;20057;-69
2023/09/07 08:40:40;;;;;;;4.00;1.48;;;28.40;99.90;;;;;;4989652;28;20048;-68
2023/09/07 08:43:09;;;;;;;2.80;1.45;;;28.50;99.90;;;;;;5076068;28;20038;-68
2023/09/07 08:45:41;;;;;;;2.63;1.67;;;28.70;99.90;;;;;;5063901;28;20072;-72
2023/09/07 08:48:10;;;;;;;3.08;1.25;;;28.80;99.90;;;;;;5055998;28;20426;-68
2023/09/07 08:50:37;;;;;;;2.35;1.60;;;28.90;99.90;;;;;;4989411;28;20044;-69
2023/09/07 08:53:04;;;;;;;2.93;1.10;;;29.10;99.90;;;;;;5056502;28;20050;-69
2023/09/07 08:55:30;;;;;;;3.08;1.30;;;29.40;99.90;;;;;;4989012;28;20053;-69
2023/09/07 08:57:56;;;;;;;5.35;1.45;;;29.80;99.90;;;;;;5056409;28;20053;-69
2023/09/07 09:00:23;;;;;;;2.97;1.17;;;30.00;99.90;;;;;;5044992;28;20468;-68
2023/09/07 09:02:50;;;;;;;2.75;1.58;;;30.30;99.90;;;;;;5035845;28;20047;-68
2023/09/07 09:05:18;;;;;;;2.63;1.25;;;30.50;99.90;;;;;;5036352;28;20118;-70
2023/09/07 09:07:43;;;;;;;2.45;1.08;;;30.70;99.90;;;;;;5054249;28;20051;-68
2023/09/07 09:10:10;;;;;;;4.20;1.42;;;31.00;99.90;;;;;;4988796;28;20041;-70
2023/09/07 09:12:35;;;;;;;3.45;1.35;;;31.10;99.20;;;;;;4987979;28;20050;-70
2023/09/07 09:15:05;;;;;;;3.60;1.23;;;31.30;98.70;;;;;;4989002;28;20042;-67
2023/09/07 09:17:31;;;;;;;2.92;1.10;;;31.50;98.20;;;;;;5055371;28;20487;-68
2023/09/07 09:19:57;;;;;;;2.67;1.58;;;31.70;97.20;;;;;;4989146;28;20096;-69
2023/09/07 09:22:24;;;;;;;2.40;1.30;;;31.90;96.20;;;;;;4987704;28;20080;-70
2023/09/07 09:24:50;;;;;;;2.50;1.08;;;31.90;95.70;;;;;;4988032;28;20081;-69
2023/09/07 09:27:17;;;;;;;2.22;1.23;;;32.10;95.60;;;;;;5072926;28;20487;-70
2023/09/07 09:29:44;;;;;;;2.50;1.40;;;32.10;94.90;;;;;;4987364;28;20050;-69
2023/09/07 09:32:13;;;;;;;2.55;1.75;;;32.30;95.20;;;;;;4988850;28;20045;-69
2023/09/07 09:34:39;;;;;;;2.90;1.35;;;32.40;94.50;;;;;;5055650;28;20042;-69
2023/09/07 09:37:12;;;;;;;2.95;1.48;;;32.30;93.60;;;;;;4987819;28;20050;-72
2023/09/07 09:39:38;;;;;;;3.25;1.55;;;32.50;93.60;;;;;;4988504;28;20046;-70
2023/09/07 09:42:04;;;;;;;2.92;1.38;;;32.60;92.20;;;;;;5031980;28;20042;-70
2023/09/07 09:44:32;;;;;;;2.88;1.92;;;32.60;93.00;;;;;;4988220;28;20570;-71
2023/09/07 09:46:59;;;;;;;3.30;1.55;;;32.60;92.00;;;;;;5055827;28;20053;-71
2023/09/07 09:49:27;;;;;;;2.60;1.40;;;32.80;90.80;;;;;;4988575;28;20042;-64
2023/09/07 09:51:54;;;;;;;3.30;1.30;;;32.90;90.30;;;;;;5054919;28;20092;-64
2023/09/07 09:54:23;;;;;;;1.38;0.90;;;33.00;90.70;;;;;;5055445;28;20075;-63
2023/09/07 09:56:49;;;;;;;2.60;1.48;;;33.10;90.30;;;;;;5042234;28;20049;-63
2023/09/07 09:59:15;;;;;;;4.18;1.80;;;33.00;89.70;;;;;;5039930;28;20030;-63
2023/09/07 10:01:44;;;;;;;2.35;1.20;;;33.10;90.30;;;;;;5055208;28;20047;-63
2023/09/07 10:04:14;;;;;;;2.25;1.27;;;33.00;89.60;;;;;;4988308;28;20593;-63
2023/09/07 10:06:49;;;;;;;2.05;1.40;;;33.10;89.30;;;;;;4988291;28;20054;-63
2023/09/07 10:09:18;;;;;;;2.53;1.40;;;33.30;87.30;;;;;;5001010;28;20517;-62
2023/09/07 10:11:50;;;;;;;2.53;1.20;;;33.30;86.40;;;;;;5008920;28;20038;-62
2023/09/07 10:14:16;;;;;;;1.85;1.08;;;33.30;85.80;;;;;;5054823;28;20076;-63
2023/09/07 10:16:43;;;;;;;3.10;1.45;;;33.20;85.50;;;;;;4986883;28;20050;-63
2023/09/07 10:19:20;;;;;;;1.75;1.00;;;33.20;85.10;;;;;;5034575;28;20053;-63
2023/09/07 10:21:46;;;;;;;2.60;1.63;;;33.40;84.00;;;;;;5034979;28;20108;-62
2023/09/07 10:24:24;;;;;;;2.58;1.23;;;33.70;84.50;;;;;;5035001;28;20063;-63
2023/09/07 10:27:07;;;;;;;3.08;1.50;;;33.60;80.10;;;;;;5060770;28;20082;-63
2023/09/07 10:29:54;;;;;;;2.35;1.10;;;33.50;79.00;;;;;;4968572;28;20149;-63
2023/09/07 10:32:20;;;;;;;1.77;1.10;;;33.60;82.10;;;;;;5034917;28;20398;-63
2023/09/07 10:34:46;;;;;;;2.55;1.20;;;33.90;82.50;;;;;;5034906;28;20051;-63
2023/09/07 10:37:13;;;;;;;2.83;1.50;;;34.10;82.60;;;;;;5034636;28;20108;-63
2023/09/07 10:39:40;;;;;;;2.95;1.23;;;34.30;82.00;;;;;;4967894;28;20115;-64
2023/09/07 10:42:06;;;;;;;1.85;1.20;;;34.50;81.70;;;;;;5042601;28;20458;-64
2023/09/07 10:44:31;;;;;;;2.97;1.27;;;34.60;80.90;;;;;;4987562;28;20078;-63
2023/09/07 10:46:57;;;;;;;2.22;1.52;;;34.50;80.70;;;;;;5053902;28;20078;-63
2023/09/07 10:49:24;;;;;;;3.30;1.30;;;34.30;80.30;;;;;;5054964;28;20125;-63
2023/09/07 10:51:50;;;;;;;2.08;1.30;;;34.20;80.00;;;;;;5052036;28;20062;-63
2023/09/07 10:54:17;;;;;;;2.38;1.30;;;34.20;79.90;;;;;;4987028;28;20038;-63
2023/09/07 10:56:46;;;;;;;2.27;1.13;;;34.30;79.20;;;;;;5054628;28;20051;-63
2023/09/07 10:59:16;;;;;;;1.95;1.35;;;34.30;79.00;;;;;;5054007;28;20103;-62
2023/09/07 11:01:45;;;;;;;2.78;1.38;;;34.40;77.30;;;;;;5040186;28;20487;-63
2023/09/07 11:04:12;;;;;;;2.78;1.40;;;34.30;78.00;;;;;;5036473;28;20050;-62
2023/09/07 11:06:40;;;;;;;2.50;1.30;;;34.10;77.10;;;;;;4989439;28;20054;-62
2023/09/07 11:09:08;;;;;;;2.25;1.20;;;33.70;77.20;;;;;;5044110;28;20582;-63
2023/09/07 11:11:36;;;;;;;2.17;1.20;;;33.40;77.40;;;;;;4990784;28;20077;-63
2023/09/07 11:14:12;;;;;;;3.43;1.33;;;33.50;77.30;;;;;;5058365;28;20543;-61
2023/09/07 11:17:03;;;;;;;1.92;1.17;;;33.30;76.50;;;;;;5039776;28;20299;-61
2023/09/07 11:19:38;;;;;;;1.40;0.98;;;33.10;75.60;;;;;;5041971;28;20050;-61
2023/09/07 11:22:04;;;;;;;2.13;1.30;;;32.90;76.50;;;;;;4972403;28;20039;-61
2023/09/07 11:24:31;;;;;;;2.15;1.35;;;32.60;76.90;;;;;;4971154;28;20043;-61
2023/09/07 11:26:58;;;;;;;2.60;1.30;;;32.40;77.60;;;;;;4971099;28;20054;-61
2023/09/07 11:29:24;;;;;;;2.03;1.10;;;32.20;76.60;;;;;;4970262;28;20487;-61
2023/09/07 11:31:51;;;;;;;2.33;1.40;;;32.00;76.60;;;;;;5005195;28;20051;-61
2023/09/07 11:34:17;;;;;;;9.68;1.67;;;31.90;77.50;;;;;;4986513;28;20109;-61
2023/09/07 11:36:43;;;;;;;2.55;1.25;;;32.10;76.50;;;;;;5056964;28;20206;-61
2023/09/07 11:39:12;;;;;;;2.15;1.20;;;32.20;76.80;;;;;;5042363;28;20145;-61
2023/09/07 11:41:45;;;;;;;3.00;1.42;;;32.10;76.50;;;;;;5048627;28;20118;-61
2023/09/07 11:44:11;;;;;;;3.35;1.10;;;32.20;76.20;;;;;;5044517;28;20047;-61
2023/09/07 11:46:37;;;;;;;1.67;0.85;;;32.10;76.50;;;;;;5051990;28;20486;-61
2023/09/07 11:49:06;;;;;;;2.88;1.33;;;31.90;77.30;;;;;;5046887;28;20051;-61
2023/09/07 11:51:32;;;;;;;;;;;31.90;77.30;;;;;;5054286;28;20052;-61
2023/09/07 11:53:59;;;;;;;2.45;1.10;;;31.90;80.30;;;;;;5054575;28;20537;-61
2023/09/07 11:56:24;;;;;;;1.85;1.20;;;31.80;76.80;;;;;;5018346;28;20065;-61
2023/09/07 11:58:50;;;;;;;2.30;1.27;;;31.70;76.90;;;;;;4989607;28;20474;-61
2023/09/07 12:01:16;;;;;;;3.03;1.50;;;31.70;76.20;;;;;;5057579;28;20050;-61
2023/09/07 12:03:43;;;;;;;2.50;1.40;;;31.80;76.70;;;;;;4989595;28;20046;-61
2023/09/07 12:06:09;;;;;;;3.08;1.40;;;31.70;76.20;;;;;;4989956;28;20098;-61
2023/09/07 12:08:36;;;;;;;1.88;1.10;;;31.70;76.00;;;;;;5057164;28;20046;-61
2023/09/07 12:11:02;;;;;;;1.52;0.88;;;31.70;75.60;;;;;;4989204;28;20049;-61
2023/09/07 12:13:28;;;;;;;2.15;1.05;;;31.70;76.30;;;;;;5057213;28;20042;-61
2023/09/07 12:15:53;;;;;;;2.60;1.45;;;31.70;76.00;;;;;;5056942;28;20040;-61
2023/09/07 12:18:19;;;;;;;5.13;1.52;;;31.80;75.70;;;;;;5072692;28;20040;-61
2023/09/07 12:20:45;;;;;;;4.20;1.00;;;31.80;75.90;;;;;;5039762;28;20038;-61
2023/09/07 12:23:11;;;;;;;2.45;1.05;;;31.50;76.00;;;;;;4988746;28;20053;-61
2023/09/07 12:25:37;;;;;;;2.65;1.50;;;31.40;75.50;;;;;;4987823;28;20061;-61
2023/09/07 12:28:03;;;;;;;2.28;1.52;;;31.30;75.70;;;;;;4988703;28;20055;-61
2023/09/07 12:30:29;;;;;;;2.30;1.02;;;31.30;76.40;;;;;;4989084;28;20390;-61
2023/09/07 12:32:54;;;;;;;2.58;1.30;;;31.30;75.90;;;;;;4988301;28;20043;-61
2023/09/07 12:35:20;;;;;;;2.80;1.02;;;31.40;75.40;;;;;;5055931;28;20091;-61
2023/09/07 12:37:46;;;;;;;1.98;1.15;;;31.50;75.30;;;;;;4988239;28;20046;-61
2023/09/07 12:40:12;;;;;;;2.15;1.10;;;31.60;75.20;;;;;;4988224;28;20144;-61
2023/09/07 12:42:39;;;;;;;3.53;1.35;;;31.80;75.40;;;;;;5056488;28;20049;-61
2023/09/07 12:45:07;;;;;;;2.55;1.00;;;32.00;75.00;;;;;;4980896;28;20058;-62
2023/09/07 12:47:32;;;;;;;2.05;1.38;;;32.10;74.50;;;;;;5036060;28;20050;-62